Time;durP1;ratioP1;P1;durP2;ratioP2;P2;SDS_P1;SDS_P2;PMS_P1;PMS_P2;Temp;Humidity;BMP_temperature;BMP_pressure;BME280_temperature;BME280_humidity;BME280_pressure;Samples;Min_cycle;Max_cycle;Signal;HPM_P1;HPM_P2
2022/11/19 00:00:00;;;;;;;3.05;1.67;;;5.70;99.90;;;;;;7611473;19;20029;-73
2022/11/19 00:02:35;;;;;;;3.47;1.58;;;5.80;99.90;;;;;;7606222;19;20025;-74
2022/11/19 00:05:07;;;;;;;4.82;1.48;;;5.80;99.90;;;;;;7605892;19;20022;-74
2022/11/19 00:07:39;;;;;;;4.05;1.73;;;5.80;99.90;;;;;;7615568;19;20019;-74
2022/11/19 00:10:11;;;;;;;1.92;1.35;;;5.90;99.90;;;;;;7608133;19;20022;-73
2022/11/19 00:12:53;;;;;;;3.13;1.50;;;5.90;99.90;;;;;;7603894;19;20093;-73
2022/11/19 00:15:25;;;;;;;5.47;1.85;;;5.90;99.90;;;;;;7608174;19;20466;-73
2022/11/19 00:17:57;;;;;;;2.50;1.65;;;5.90;99.90;;;;;;7607647;19;20023;-73
2022/11/19 00:20:30;;;;;;;2.85;2.35;;;5.90;99.90;;;;;;7601538;19;20048;-73
2022/11/19 00:23:02;;;;;;;2.77;1.93;;;5.80;99.90;;;;;;7604915;19;20025;-73
2022/11/19 00:25:34;;;;;;;4.63;2.75;;;5.80;99.90;;;;;;7611722;19;20021;-73
2022/11/19 00:28:06;;;;;;;7.15;2.25;;;5.80;99.90;;;;;;7608848;19;20015;-74
2022/11/19 00:30:38;;;;;;;3.85;2.13;;;5.80;99.90;;;;;;7611061;19;20022;-73
2022/11/19 00:33:19;;;;;;;6.22;2.00;;;5.70;99.90;;;;;;7614330;19;20018;-73
2022/11/19 00:35:55;;;;;;;3.95;2.55;;;5.70;99.90;;;;;;7607893;19;20032;-73
2022/11/19 00:38:28;;;;;;;6.43;3.10;;;5.70;99.90;;;;;;7605012;19;20502;-74
2022/11/19 00:41:00;;;;;;;6.28;2.83;;;5.70;99.90;;;;;;7603542;19;20026;-74
2022/11/19 00:43:48;;;;;;;4.97;2.75;;;5.70;99.90;;;;;;7609730;19;20641;-74
2022/11/19 00:46:26;;;;;;;3.50;2.20;;;5.70;99.90;;;;;;7613433;19;20014;-75
2022/11/19 00:48:59;;;;;;;5.60;2.75;;;5.70;99.90;;;;;;7608472;19;20035;-74
2022/11/19 00:51:31;;;;;;;4.60;3.13;;;5.70;99.90;;;;;;7610474;19;20026;-74
2022/11/19 00:54:03;;;;;;;5.63;3.05;;;5.60;99.90;;;;;;7605447;19;21151;-74
2022/11/19 00:56:35;;;;;;;5.53;3.30;;;5.60;99.90;;;;;;7613424;19;20015;-74
2022/11/19 00:59:07;;;;;;;5.68;3.20;;;5.70;99.90;;;;;;7605924;19;20023;-75
2022/11/19 01:01:39;;;;;;;5.63;3.35;;;5.60;99.90;;;;;;7608421;19;20042;-74
2022/11/19 01:04:12;;;;;;;7.10;3.10;;;5.70;99.90;;;;;;7610859;19;20153;-75
2022/11/19 01:06:44;;;;;;;4.25;3.20;;;5.70;99.90;;;;;;7610144;19;20018;-73
2022/11/19 01:09:16;;;;;;;5.68;3.20;;;5.60;99.90;;;;;;7608948;19;20029;-74
2022/11/19 01:11:49;;;;;;;4.93;3.35;;;5.70;99.90;;;;;;7609127;19;20403;-74
2022/11/19 01:14:21;;;;;;;6.53;3.60;;;5.60;99.90;;;;;;7612170;19;20030;-75
2022/11/19 01:16:53;;;;;;;6.57;3.33;;;5.70;99.90;;;;;;7612406;19;20085;-74
2022/11/19 01:19:25;;;;;;;7.03;3.42;;;5.80;99.90;;;;;;7598061;19;20018;-74
2022/11/19 01:21:57;;;;;;;4.07;2.88;;;5.80;99.90;;;;;;7599510;19;20038;-74
2022/11/19 01:24:29;;;;;;;5.95;3.70;;;5.80;99.90;;;;;;7613199;19;20030;-74
2022/11/19 01:27:01;;;;;;;4.00;3.05;;;5.80;99.90;;;;;;7607230;19;20014;-73
2022/11/19 01:29:33;;;;;;;7.35;3.58;;;5.80;99.90;;;;;;7612675;19;20018;-74
2022/11/19 01:32:05;;;;;;;6.25;3.70;;;5.80;99.90;;;;;;7608642;19;20490;-74
2022/11/19 01:34:37;;;;;;;7.45;4.07;;;5.70;99.90;;;;;;7608657;19;20021;-74
2022/11/19 01:37:09;;;;;;;3.33;1.92;;;5.80;99.90;;;;;;7603637;19;20058;-74
2022/11/19 01:39:41;;;;;;;6.05;3.53;;;5.90;99.90;;;;;;7610359;19;20453;-74
2022/11/19 01:42:50;;;;;;;8.40;3.50;;;5.90;99.90;;;;;;7602900;19;20021;-74
2022/11/19 01:45:36;;;;;;;7.72;4.53;;;5.90;99.90;;;;;;7611117;19;20561;-74
2022/11/19 01:48:21;;;;;;;7.07;4.30;;;5.80;99.90;;;;;;7609248;19;20029;-73
2022/11/19 01:51:07;;;;;;;5.50;3.70;;;5.70;99.90;;;;;;7604903;19;20022;-74
2022/11/19 01:53:42;;;;;;;6.30;3.63;;;5.80;99.90;;;;;;7601018;19;20524;-73
2022/11/19 01:56:16;;;;;;;6.43;4.07;;;5.80;99.90;;;;;;7609041;19;20018;-74
2022/11/19 01:58:54;;;;;;;5.57;3.97;;;5.80;99.90;;;;;;7607608;19;20019;-74
2022/11/19 02:01:27;;;;;;;6.57;4.15;;;5.80;99.90;;;;;;7604816;19;20022;-74
2022/11/19 02:04:01;;;;;;;7.38;4.40;;;5.90;99.90;;;;;;7611432;19;20090;-74
2022/11/19 02:06:33;;;;;;;7.63;4.95;;;5.90;99.90;;;;;;7611037;19;20006;-74
2022/11/19 02:09:05;;;;;;;9.73;4.95;;;5.80;99.90;;;;;;7614496;19;20011;-74
2022/11/19 02:12:12;;;;;;;6.90;4.20;;;5.80;99.90;;;;;;7609858;19;20023;-74
2022/11/19 02:14:53;;;;;;;10.00;3.92;;;5.90;99.90;;;;;;7612469;19;20062;-74
2022/11/19 02:17:50;;;;;;;9.20;4.25;;;5.80;99.90;;;;;;7607522;19;21072;-73
2022/11/19 02:20:47;;;;;;;4.82;3.15;;;5.90;99.90;;;;;;7611636;19;20061;-73
2022/11/19 02:23:44;;;;;;;9.73;3.53;;;5.90;99.90;;;;;;7605443;19;20478;-74
2022/11/19 02:26:49;;;;;;;8.63;4.15;;;5.90;99.90;;;;;;7617049;19;20010;-74
2022/11/19 02:29:30;;;;;;;9.50;5.30;;;6.00;99.90;;;;;;7588862;19;20022;-73
2022/11/19 02:32:15;;;;;;;7.40;5.00;;;6.10;99.90;;;;;;7612218;19;20490;-73
2022/11/19 02:35:03;;;;;;;7.97;4.53;;;6.00;99.90;;;;;;7611245;19;20040;-74
2022/11/19 02:38:03;;;;;;;10.35;5.25;;;6.00;99.90;;;;;;7610976;19;20701;-74
2022/11/19 02:40:40;;;;;;;7.97;4.60;;;5.90;99.90;;;;;;7612191;19;20048;-74
2022/11/19 02:43:24;;;;;;;6.50;4.95;;;6.00;99.90;;;;;;7605022;19;20026;-74
2022/11/19 02:46:09;;;;;;;9.38;4.78;;;5.90;99.90;;;;;;7607561;19;20022;-74
2022/11/19 02:48:51;;;;;;;7.78;4.80;;;5.90;99.90;;;;;;7613325;19;20015;-74
2022/11/19 02:51:24;;;;;;;6.32;3.83;;;5.80;99.90;;;;;;7610129;19;20528;-73
2022/11/19 02:53:56;;;;;;;9.27;4.00;;;5.90;99.90;;;;;;7613947;19;20343;-73
2022/11/19 02:56:54;;;;;;;5.00;3.47;;;5.80;99.90;;;;;;7614803;19;20113;-74
2022/11/19 03:06:18;;;;;;;9.02;4.43;;;5.90;99.90;;;;;;7610073;19;20052;-74
2022/11/19 03:08:50;;;;;;;8.57;4.03;;;5.80;99.90;;;;;;7614206;19;20023;-73
2022/11/19 03:11:28;;;;;;;7.22;3.95;;;5.80;99.90;;;;;;7610655;19;20860;-74
2022/11/19 03:17:24;;;;;;;6.53;3.70;;;5.70;99.90;;;;;;7609761;19;20033;-75
2022/11/19 03:20:15;;;;;;;10.85;3.80;;;5.70;99.90;;;;;;7610237;19;20015;-74
2022/11/19 03:23:00;;;;;;;5.00;3.47;;;5.80;99.90;;;;;;7610632;19;20015;-73
2022/11/19 03:25:34;;;;;;;4.82;3.15;;;5.80;99.90;;;;;;7613380;19;20024;-75
2022/11/19 03:28:13;;;;;;;5.03;3.10;;;5.80;99.90;;;;;;7606234;19;20102;-74
2022/11/19 03:30:48;;;;;;;9.13;2.78;;;5.80;99.90;;;;;;7611389;19;20030;-75
2022/11/19 03:33:43;;;;;;;4.80;2.83;;;5.90;99.90;;;;;;7603524;19;20018;-74
2022/11/19 03:36:37;;;;;;;4.88;2.25;;;5.90;99.90;;;;;;7605779;19;20019;-74
2022/11/19 03:39:14;;;;;;;9.25;2.75;;;5.90;99.90;;;;;;7614060;19;20034;-74
2022/11/19 03:41:50;;;;;;;3.42;2.65;;;6.00;99.90;;;;;;7614739;19;20087;-74
2022/11/19 03:44:49;;;;;;;5.68;2.00;;;5.90;99.90;;;;;;7599360;19;20014;-75
2022/11/19 03:47:26;;;;;;;7.25;2.53;;;6.00;99.90;;;;;;7592902;19;20020;-74
2022/11/19 03:50:08;;;;;;;3.08;2.05;;;6.00;99.90;;;;;;7604425;19;20018;-74
2022/11/19 03:52:41;;;;;;;6.57;2.55;;;6.00;99.90;;;;;;7605244;19;20025;-75
2022/11/19 03:55:15;;;;;;;4.93;2.03;;;5.90;99.90;;;;;;7613779;19;20018;-74
2022/11/19 03:57:47;;;;;;;4.80;2.83;;;5.90;99.90;;;;;;7602450;19;20042;-73
2022/11/19 04:00:19;;;;;;;5.25;1.88;;;6.00;99.90;;;;;;7584783;19;20022;-74
2022/11/19 04:02:51;;;;;;;5.95;1.90;;;5.90;99.90;;;;;;7600959;19;20092;-74
2022/11/19 04:05:23;;;;;;;4.85;2.17;;;5.90;99.90;;;;;;7606325;19;20029;-74
2022/11/19 04:07:55;;;;;;;4.43;1.77;;;5.90;99.90;;;;;;7602461;19;20074;-75
2022/11/19 04:10:28;;;;;;;5.45;1.55;;;5.90;99.90;;;;;;7613534;19;20077;-75
2022/11/19 04:13:00;;;;;;;4.93;1.50;;;6.00;99.90;;;;;;7611560;19;20942;-74
2022/11/19 04:15:32;;;;;;;3.20;1.58;;;6.00;99.90;;;;;;7556500;19;20025;-74
2022/11/19 04:18:04;;;;;;;2.75;1.50;;;6.00;99.90;;;;;;7598829;19;20010;-74
2022/11/19 04:20:36;;;;;;;3.05;2.00;;;6.10;99.90;;;;;;7600122;19;20018;-74
2022/11/19 04:23:08;;;;;;;5.72;1.65;;;6.10;99.90;;;;;;7594052;19;20026;-74
2022/11/19 04:25:45;;;;;;;3.20;1.52;;;6.00;99.90;;;;;;7569862;19;20031;-74
2022/11/19 04:28:17;;;;;;;2.67;1.15;;;6.00;99.90;;;;;;7590767;19;20021;-74
2022/11/19 04:30:50;;;;;;;4.38;1.55;;;6.10;99.90;;;;;;7598154;19;20014;-75
2022/11/19 04:33:22;;;;;;;4.78;1.50;;;6.10;99.90;;;;;;7588777;19;20028;-74
2022/11/19 04:35:54;;;;;;;3.15;1.55;;;5.90;99.90;;;;;;7587057;19;20114;-74
2022/11/19 04:38:26;;;;;;;5.60;1.63;;;5.90;99.90;;;;;;7599449;19;20018;-75
2022/11/19 04:40:58;;;;;;;6.20;1.58;;;6.00;99.90;;;;;;7608682;19;20014;-75
2022/11/19 04:43:30;;;;;;;5.93;2.35;;;5.90;99.90;;;;;;7605879;19;20130;-75
2022/11/19 04:46:02;;;;;;;4.00;1.90;;;5.80;99.90;;;;;;7596879;19;20018;-75
2022/11/19 04:48:34;;;;;;;7.07;1.80;;;5.80;99.90;;;;;;7601991;19;20914;-75
2022/11/19 04:51:06;;;;;;;4.82;2.05;;;5.90;99.90;;;;;;7612723;19;20034;-74
2022/11/19 04:53:39;;;;;;;5.00;1.90;;;5.80;99.90;;;;;;7607232;19;20019;-75
2022/11/19 04:56:10;;;;;;;5.88;1.40;;;5.70;99.90;;;;;;7610487;19;20530;-75
2022/11/19 04:58:42;;;;;;;6.20;1.80;;;5.70;99.90;;;;;;7612023;19;20014;-75
2022/11/19 05:01:14;;;;;;;4.57;1.50;;;5.70;99.90;;;;;;7609002;19;20010;-76
2022/11/19 05:03:47;;;;;;;3.08;1.40;;;5.70;99.90;;;;;;7611923;19;20082;-75
2022/11/19 05:06:19;;;;;;;3.03;1.70;;;5.70;99.90;;;;;;7614581;19;20029;-75
2022/11/19 05:08:51;;;;;;;6.68;1.90;;;5.60;99.90;;;;;;7617319;19;20022;-75
2022/11/19 05:11:23;;;;;;;2.05;1.55;;;5.60;99.90;;;;;;7615700;19;20497;-74
2022/11/19 05:13:55;;;;;;;3.33;1.75;;;5.70;99.90;;;;;;7611459;19;20010;-75
2022/11/19 05:16:27;;;;;;;3.05;1.70;;;5.60;99.90;;;;;;7617948;19;20035;-76
2022/11/19 05:18:59;;;;;;;3.88;1.30;;;5.60;99.90;;;;;;7621826;19;20090;-75
2022/11/19 05:21:31;;;;;;;3.47;1.70;;;5.70;99.90;;;;;;7613069;19;20023;-75
2022/11/19 05:24:04;;;;;;;2.30;1.70;;;5.70;99.90;;;;;;7614274;19;20022;-75
2022/11/19 05:26:36;;;;;;;4.88;1.45;;;5.70;99.90;;;;;;7615119;19;20010;-75
2022/11/19 05:29:08;;;;;;;3.15;1.55;;;5.70;99.90;;;;;;7612669;19;20022;-75
2022/11/19 05:31:40;;;;;;;4.28;1.80;;;5.80;99.90;;;;;;7619702;19;20023;-75
2022/11/19 05:34:12;;;;;;;3.33;1.95;;;5.70;99.90;;;;;;7616124;19;20115;-75
2022/11/19 05:36:44;;;;;;;6.82;1.65;;;5.70;99.90;;;;;;7613860;19;20030;-72
2022/11/19 05:39:16;;;;;;;3.55;1.70;;;5.70;99.90;;;;;;7617849;19;20006;-74
2022/11/19 05:41:53;;;;;;;5.07;2.13;;;5.70;99.90;;;;;;7616587;19;20014;-74
2022/11/19 05:44:25;;;;;;;5.20;2.17;;;5.80;99.90;;;;;;7611923;19;20022;-76
2022/11/19 05:46:58;;;;;;;9.55;2.85;;;5.70;99.90;;;;;;7622337;19;20048;-73
2022/11/19 05:49:30;;;;;;;4.72;2.20;;;5.70;99.90;;;;;;7618186;19;20025;-74
2022/11/19 05:52:03;;;;;;;3.38;2.33;;;5.80;99.90;;;;;;7615813;19;20593;-74
2022/11/19 05:54:36;;;;;;;4.43;2.30;;;5.70;99.90;;;;;;7615658;19;20124;-73
2022/11/19 05:57:08;;;;;;;5.95;2.33;;;5.70;99.90;;;;;;7602967;19;20018;-74
2022/11/19 05:59:40;;;;;;;5.13;2.38;;;5.60;99.90;;;;;;7613409;19;20022;-74
2022/11/19 06:02:15;;;;;;;3.97;2.40;;;5.70;99.90;;;;;;7621297;19;20022;-74
2022/11/19 06:04:47;;;;;;;3.78;2.08;;;5.80;99.90;;;;;;7612965;19;21518;-74
2022/11/19 06:07:19;;;;;;;4.68;1.90;;;5.80;99.90;;;;;;7619765;19;20398;-75
2022/11/19 06:09:51;;;;;;;6.80;2.38;;;5.70;99.90;;;;;;7613815;19;20477;-73
2022/11/19 06:12:23;;;;;;;4.45;2.33;;;5.60;99.90;;;;;;7607862;19;20014;-73
2022/11/19 06:14:55;;;;;;;5.18;2.65;;;5.60;99.90;;;;;;7615337;19;20884;-74
2022/11/19 06:17:28;;;;;;;22.90;9.23;;;5.70;99.90;;;;;;7611378;19;20248;-73
2022/11/19 06:20:00;;;;;;;4.53;3.13;;;5.70;99.90;;;;;;7611935;19;20385;-74
2022/11/19 06:22:32;;;;;;;5.43;2.92;;;5.70;99.90;;;;;;7606560;19;20022;-74
2022/11/19 06:25:06;;;;;;;6.22;2.83;;;5.70;99.90;;;;;;7615723;19;20049;-74
2022/11/19 06:27:38;;;;;;;3.70;2.55;;;5.70;99.90;;;;;;7614540;19;20025;-74
2022/11/19 06:30:11;;;;;;;3.67;2.30;;;5.70;99.90;;;;;;7612410;19;20018;-74
2022/11/19 06:32:43;;;;;;;3.10;2.17;;;5.70;99.90;;;;;;7605499;19;20134;-75
2022/11/19 06:35:15;;;;;;;3.00;1.80;;;5.70;99.90;;;;;;7609212;19;20022;-75
2022/11/19 06:37:48;;;;;;;6.13;2.20;;;5.70;99.90;;;;;;7613230;19;20014;-74
2022/11/19 06:40:20;;;;;;;2.50;1.83;;;5.70;99.90;;;;;;7610958;19;20026;-74
2022/11/19 06:42:52;;;;;;;3.55;2.10;;;5.80;99.90;;;;;;7611572;19;20018;-74
2022/11/19 06:45:24;;;;;;;3.50;2.17;;;5.90;99.90;;;;;;7611039;19;20021;-74
2022/11/19 06:47:56;;;;;;;3.90;1.95;;;5.80;99.90;;;;;;7597012;19;20014;-75
2022/11/19 06:50:29;;;;;;;4.82;1.85;;;5.80;99.90;;;;;;7612273;19;20086;-74
2022/11/19 06:53:01;;;;;;;2.93;2.07;;;5.90;99.90;;;;;;7612479;19;20082;-74
2022/11/19 06:55:33;;;;;;;3.95;2.60;;;5.80;99.90;;;;;;7608400;19;20018;-75
2022/11/19 06:58:07;;;;;;;3.10;2.13;;;5.80;99.90;;;;;;7603855;19;20018;-75
2022/11/19 07:00:39;;;;;;;8.07;2.65;;;5.80;99.90;;;;;;7610809;19;20029;-75
2022/11/19 07:03:11;;;;;;;2.92;1.77;;;5.80;99.90;;;;;;7614410;19;20011;-75
2022/11/19 07:05:43;;;;;;;6.97;2.58;;;5.90;99.90;;;;;;7608059;19;20881;-73
2022/11/19 07:08:16;;;;;;;2.72;1.65;;;5.90;99.90;;;;;;7608030;19;20030;-74
2022/11/19 07:10:48;;;;;;;2.00;1.60;;;5.90;99.90;;;;;;7608506;19;20027;-74
2022/11/19 07:13:20;;;;;;;3.65;1.70;;;5.90;99.90;;;;;;7611083;19;20426;-74
2022/11/19 07:15:52;;;;;;;2.45;1.63;;;6.00;99.90;;;;;;7609329;19;20575;-74
2022/11/19 07:18:25;;;;;;;2.75;1.38;;;5.90;99.90;;;;;;7603423;19;20439;-74
2022/11/19 07:20:57;;;;;;;2.53;1.58;;;6.00;99.90;;;;;;7610941;19;20901;-74
2022/11/19 07:23:29;;;;;;;1.85;1.42;;;6.10;99.90;;;;;;7613099;19;20095;-75
2022/11/19 07:26:01;;;;;;;1.90;1.60;;;6.10;99.90;;;;;;7600794;19;20456;-75
2022/11/19 07:28:34;;;;;;;3.20;1.70;;;6.10;99.90;;;;;;7599027;19;20029;-74
2022/11/19 07:31:07;;;;;;;1.87;1.50;;;6.10;99.90;;;;;;7603482;19;20014;-75
2022/11/19 07:33:39;;;;;;;2.20;1.83;;;6.00;99.90;;;;;;7605500;19;20565;-74
2022/11/19 07:36:11;;;;;;;2.60;1.65;;;6.00;99.90;;;;;;7593484;19;20018;-74
2022/11/19 07:38:51;;;;;;;2.60;1.58;;;6.10;99.90;;;;;;7596650;19;20022;-75
2022/11/19 07:44:14;;;;;;;4.25;2.47;;;6.10;99.90;;;;;;7594076;19;20029;-75
2022/11/19 07:46:46;;;;;;;3.72;1.88;;;6.20;99.90;;;;;;7607317;19;20382;-75
2022/11/19 07:49:19;;;;;;;6.80;1.65;;;6.30;99.90;;;;;;7600027;19;20010;-74
2022/11/19 07:51:52;;;;;;;2.30;1.42;;;6.50;99.90;;;;;;7597375;19;20026;-74
2022/11/19 07:54:24;;;;;;;4.40;1.77;;;6.60;99.90;;;;;;7597517;19;20018;-75
2022/11/19 07:56:57;;;;;;;3.10;1.67;;;6.60;99.90;;;;;;7608395;19;20014;-74
2022/11/19 07:59:29;;;;;;;2.47;1.60;;;6.70;99.90;;;;;;7603323;19;20853;-75
2022/11/19 08:02:02;;;;;;;2.17;1.88;;;6.60;99.90;;;;;;7596707;19;20014;-74
2022/11/19 08:04:34;;;;;;;3.17;1.80;;;6.60;99.90;;;;;;7594417;19;20026;-74
2022/11/19 08:07:07;;;;;;;2.70;1.80;;;6.70;99.90;;;;;;7602237;19;20466;-74
2022/11/19 08:09:39;;;;;;;3.80;2.03;;;6.80;99.90;;;;;;7613849;19;20479;-74
2022/11/19 08:12:11;;;;;;;2.47;1.48;;;6.80;99.90;;;;;;7608277;19;20034;-74
2022/11/19 08:14:43;;;;;;;3.38;1.77;;;6.90;99.90;;;;;;7610202;19;20021;-74
2022/11/19 08:20:07;;;;;;;2.20;1.80;;;6.90;99.90;;;;;;7608248;19;20014;-73
2022/11/19 08:22:40;;;;;;;2.92;2.25;;;6.80;99.90;;;;;;7593984;19;21398;-75
2022/11/19 08:25:13;;;;;;;3.72;1.63;;;6.90;99.90;;;;;;7599703;19;20029;-74
2022/11/19 08:27:47;;;;;;;4.07;1.85;;;7.00;99.90;;;;;;7609277;19;20014;-75
2022/11/19 08:30:19;;;;;;;2.65;1.88;;;6.90;99.90;;;;;;7604346;19;20014;-74
2022/11/19 08:32:51;;;;;;;4.53;1.40;;;7.00;99.90;;;;;;7601076;19;20466;-74
2022/11/19 08:35:24;;;;;;;1.95;1.73;;;7.20;99.90;;;;;;7600896;19;20094;-75
2022/11/19 08:37:57;;;;;;;3.17;1.87;;;7.20;99.90;;;;;;7614059;19;20022;-74
2022/11/19 08:40:29;;;;;;;3.35;1.98;;;7.20;99.90;;;;;;7583731;19;20026;-75
2022/11/19 08:43:01;;;;;;;3.42;2.08;;;7.30;99.90;;;;;;7595273;19;20033;-74
2022/11/19 08:45:38;;;;;;;3.38;1.50;;;7.40;99.90;;;;;;7608272;19;20022;-75
2022/11/19 08:48:12;;;;;;;2.75;1.80;;;7.60;99.90;;;;;;7590594;19;20644;-74
2022/11/19 08:50:44;;;;;;;2.38;1.50;;;7.70;99.90;;;;;;7601604;19;20030;-74
2022/11/19 08:53:16;;;;;;;2.40;1.65;;;7.70;99.90;;;;;;7586851;19;20025;-74
2022/11/19 08:55:51;;;;;;;2.15;1.70;;;7.80;99.90;;;;;;7605286;19;20536;-75
2022/11/19 08:58:23;;;;;;;5.35;1.98;;;7.70;99.90;;;;;;7586304;19;20815;-74
2022/11/19 09:00:55;;;;;;;2.40;1.70;;;7.70;99.90;;;;;;7582706;19;20014;-74
2022/11/19 09:03:28;;;;;;;3.35;1.60;;;7.80;99.90;;;;;;7571455;19;20025;-75
2022/11/19 09:06:00;;;;;;;2.17;1.50;;;7.80;99.90;;;;;;7596473;19;20010;-75
2022/11/19 09:08:33;;;;;;;3.55;1.92;;;7.80;99.90;;;;;;7601972;19;20046;-75
2022/11/19 09:11:11;;;;;;;2.58;1.92;;;7.80;99.90;;;;;;7601728;19;20026;-76
2022/11/19 09:13:44;;;;;;;2.83;1.90;;;8.00;99.90;;;;;;7603670;19;20011;-75
2022/11/19 09:16:16;;;;;;;2.95;1.40;;;8.10;99.90;;;;;;7601683;19;20018;-75
2022/11/19 09:18:48;;;;;;;1.80;1.50;;;8.10;99.90;;;;;;7601809;19;20010;-75
2022/11/19 09:21:20;;;;;;;3.15;1.70;;;8.20;99.90;;;;;;7615567;19;20019;-75
2022/11/19 09:23:52;;;;;;;1.33;1.20;;;8.20;99.90;;;;;;7614508;19;20577;-74
2022/11/19 09:26:24;;;;;;;3.58;1.67;;;8.20;99.90;;;;;;7607887;19;20130;-74
2022/11/19 09:28:56;;;;;;;2.45;1.10;;;8.30;99.90;;;;;;7607302;19;20027;-75
2022/11/19 09:31:29;;;;;;;2.83;1.10;;;8.40;99.90;;;;;;7612198;19;20048;-75
2022/11/19 09:34:01;;;;;;;2.58;1.00;;;8.50;99.90;;;;;;7602191;19;20484;-74
2022/11/19 09:36:33;;;;;;;1.02;0.80;;;8.50;99.90;;;;;;7592213;19;20026;-74
2022/11/19 09:39:06;;;;;;;2.97;1.00;;;8.50;99.90;;;;;;7586192;19;20022;-74
2022/11/19 09:42:25;;;;;;;1.70;1.10;;;8.50;99.90;;;;;;7590028;19;20022;-74
2022/11/19 09:45:09;;;;;;;3.58;1.00;;;8.30;99.90;;;;;;7603825;19;20030;-74
2022/11/19 09:47:47;;;;;;;1.85;1.20;;;8.30;99.90;;;;;;7609017;19;20050;-74
2022/11/19 09:50:31;;;;;;;1.88;1.02;;;8.10;99.90;;;;;;7583823;19;20104;-74
2022/11/19 09:53:13;;;;;;;3.10;1.30;;;8.20;99.90;;;;;;7593136;19;20026;-74
2022/11/19 09:55:48;;;;;;;2.25;1.20;;;8.20;99.90;;;;;;7600827;19;21080;-74
2022/11/19 09:58:39;;;;;;;4.35;1.40;;;8.20;99.90;;;;;;7576540;19;20033;-74
2022/11/19 10:01:16;;;;;;;1.90;0.98;;;8.20;99.90;;;;;;7615202;19;20022;-74
2022/11/19 10:03:51;;;;;;;2.25;1.35;;;8.10;99.90;;;;;;7605725;19;20022;-74
2022/11/19 10:07:01;;;;;;;2.55;1.58;;;8.10;99.90;;;;;;7570030;19;20025;-74
2022/11/19 10:09:57;;;;;;;4.07;1.95;;;8.10;99.90;;;;;;7589524;19;20035;-74
2022/11/19 10:13:10;;;;;;;2.38;1.35;;;8.10;99.90;;;;;;7579942;19;20018;-74
2022/11/19 10:15:51;;;;;;;2.65;0.95;;;8.10;99.90;;;;;;7581114;19;20571;-74
2022/11/19 10:18:49;;;;;;;2.85;1.50;;;8.10;99.90;;;;;;7602591;19;20478;-74
2022/11/19 10:21:27;;;;;;;3.70;2.35;;;8.10;99.90;;;;;;7593553;19;20015;-74
2022/11/19 10:24:14;;;;;;;3.67;2.08;;;8.10;99.90;;;;;;7597504;19;20044;-75
2022/11/19 10:27:29;;;;;;;3.55;2.42;;;8.20;99.90;;;;;;7596259;19;20022;-74
2022/11/19 10:30:05;;;;;;;3.53;1.60;;;8.20;99.90;;;;;;7606913;19;20619;-74
2022/11/19 10:33:06;;;;;;;4.55;2.03;;;8.30;99.90;;;;;;7598674;19;20022;-74
2022/11/19 10:36:08;;;;;;;3.65;2.08;;;8.30;99.90;;;;;;7600520;19;20650;-74
2022/11/19 10:38:59;;;;;;;5.00;2.00;;;8.30;99.90;;;;;;7568500;19;20558;-74
2022/11/19 10:41:52;;;;;;;3.55;1.48;;;8.30;99.90;;;;;;7593079;19;20018;-74
2022/11/19 10:44:41;;;;;;;2.85;1.67;;;8.40;99.90;;;;;;7578728;19;20831;-74
2022/11/19 10:47:46;;;;;;;1.55;1.35;;;8.40;99.90;;;;;;7598079;19;20022;-74
2022/11/19 10:50:21;;;;;;;3.15;1.70;;;8.40;99.90;;;;;;7605057;19;20018;-74
2022/11/19 10:53:25;;;;;;;1.75;1.20;;;8.30;99.90;;;;;;7598063;19;20556;-75
2022/11/19 10:56:13;;;;;;;3.00;1.40;;;8.30;99.90;;;;;;7605703;19;20766;-75
2022/11/19 10:59:10;;;;;;;1.70;1.30;;;8.40;99.90;;;;;;7601876;19;20063;-75
2022/11/19 11:01:45;;;;;;;3.10;1.77;;;8.30;99.90;;;;;;7597835;19;20942;-74
2022/11/19 11:04:21;;;;;;;2.03;1.13;;;8.30;99.90;;;;;;7589266;19;20025;-74
2022/11/19 11:07:02;;;;;;;1.50;1.23;;;8.40;99.90;;;;;;7597991;19;20026;-74
2022/11/19 11:09:36;;;;;;;2.60;1.83;;;8.40;99.90;;;;;;7581179;19;22457;-74
2022/11/19 11:15:20;;;;;;;3.13;1.70;;;8.40;99.90;;;;;;7582655;19;20851;-75
2022/11/19 11:18:05;;;;;;;2.45;1.58;;;8.50;99.90;;;;;;7593519;19;20022;-75
2022/11/19 11:20:43;;;;;;;2.60;1.90;;;8.50;99.90;;;;;;7592856;19;20025;-74
2022/11/19 11:23:25;;;;;;;2.33;1.80;;;8.50;99.90;;;;;;7562255;19;20018;-73
2022/11/19 11:26:08;;;;;;;3.95;1.50;;;8.60;99.90;;;;;;7603942;19;20018;-74
2022/11/19 11:29:04;;;;;;;1.88;1.48;;;8.80;99.90;;;;;;7591619;19;20498;-74
2022/11/19 11:31:54;;;;;;;2.45;1.38;;;8.90;99.90;;;;;;7581784;19;20554;-73
2022/11/19 11:34:28;;;;;;;2.60;1.65;;;9.00;99.90;;;;;;7597139;19;20026;-73
2022/11/19 11:37:02;;;;;;;3.38;1.60;;;9.80;99.90;;;;;;7583817;19;20026;-74
2022/11/19 11:39:42;;;;;;;2.92;1.48;;;10.00;99.90;;;;;;7580617;19;20161;-73
2022/11/19 11:42:18;;;;;;;4.35;1.70;;;10.00;99.90;;;;;;7571353;19;21743;-73
2022/11/19 11:44:54;;;;;;;3.10;1.75;;;10.10;99.90;;;;;;7596238;19;20503;-74
2022/11/19 11:47:45;;;;;;;5.65;1.80;;;10.70;99.90;;;;;;7593109;19;20018;-73
2022/11/19 11:50:23;;;;;;;1.70;1.50;;;11.00;98.60;;;;;;7598068;19;20323;-74
2022/11/19 11:52:58;;;;;;;5.07;1.60;;;10.90;98.10;;;;;;7601779;19;20049;-73
2022/11/19 11:55:31;;;;;;;2.33;1.33;;;10.80;99.60;;;;;;7577309;19;20018;-74
2022/11/19 11:58:23;;;;;;;3.47;1.92;;;10.40;99.10;;;;;;7589271;19;20018;-73
2022/11/19 12:01:10;;;;;;;3.35;1.45;;;10.40;99.90;;;;;;7595724;19;20668;-74
2022/11/19 12:03:56;;;;;;;2.95;1.58;;;10.40;99.90;;;;;;7598464;19;20011;-74
2022/11/19 12:06:38;;;;;;;3.10;1.70;;;10.10;99.90;;;;;;7598849;19;20014;-74
2022/11/19 12:09:37;;;;;;;4.70;1.63;;;9.70;99.70;;;;;;7581803;19;20045;-74
2022/11/19 12:12:21;;;;;;;5.20;2.08;;;9.30;99.90;;;;;;7570554;19;20609;-74
2022/11/19 12:15:08;;;;;;;3.17;1.70;;;9.20;99.90;;;;;;7571053;19;20018;-74
2022/11/19 12:17:52;;;;;;;5.70;2.00;;;9.20;99.90;;;;;;7588057;19;20014;-74
2022/11/19 12:20:59;;;;;;;3.92;2.08;;;9.20;99.90;;;;;;7587647;19;20023;-73
2022/11/19 12:24:09;;;;;;;6.15;1.80;;;9.20;99.90;;;;;;7571195;19;20018;-74
2022/11/19 12:26:43;;;;;;;4.43;2.05;;;9.00;99.90;;;;;;7580407;19;20652;-74
2022/11/19 12:29:29;;;;;;;4.38;1.90;;;8.70;99.90;;;;;;7571138;19;20597;-74
2022/11/19 12:32:06;;;;;;;5.60;2.72;;;8.60;99.90;;;;;;7536325;19;20018;-74
2022/11/19 12:34:57;;;;;;;4.63;2.08;;;8.50;99.90;;;;;;7575987;19;20010;-74
2022/11/19 12:37:32;;;;;;;7.40;2.20;;;8.50;99.90;;;;;;7588912;19;20025;-74
2022/11/19 12:40:30;;;;;;;4.10;1.92;;;8.50;99.90;;;;;;7571121;19;20030;-74
2022/11/19 12:43:39;;;;;;;4.82;2.08;;;8.40;99.90;;;;;;7592644;19;20025;-74
2022/11/19 12:46:37;;;;;;;3.47;1.90;;;8.50;99.90;;;;;;7588739;19;20014;-74
2022/11/19 12:49:43;;;;;;;4.28;2.40;;;8.40;99.90;;;;;;7583105;19;20014;-74
2022/11/19 12:52:21;;;;;;;4.38;1.85;;;8.50;99.90;;;;;;7558784;19;20022;-74
2022/11/19 12:55:08;;;;;;;4.78;2.25;;;8.40;99.90;;;;;;7589708;19;20014;-74
2022/11/19 12:58:12;;;;;;;4.00;2.08;;;8.40;99.90;;;;;;7605078;19;20703;-74
2022/11/19 13:00:52;;;;;;;3.30;1.98;;;8.50;99.90;;;;;;7569724;19;20664;-74
2022/11/19 13:03:42;;;;;;;4.07;1.67;;;8.50;99.90;;;;;;7555782;19;20254;-75
2022/11/19 13:06:23;;;;;;;2.95;1.80;;;8.40;99.90;;;;;;7583092;19;20019;-73
2022/11/19 13:09:03;;;;;;;7.18;1.70;;;8.50;99.90;;;;;;7581244;19;20018;-74
2022/11/19 13:11:46;;;;;;;2.97;1.63;;;8.50;99.90;;;;;;7577140;19;20065;-74
2022/11/19 13:14:37;;;;;;;2.83;1.70;;;8.40;99.90;;;;;;7579121;19;20025;-73
2022/11/19 13:17:36;;;;;;;3.72;1.73;;;8.40;99.90;;;;;;7586209;19;20023;-74
2022/11/19 13:20:32;;;;;;;6.15;1.50;;;8.40;99.90;;;;;;7586098;19;20073;-74
2022/11/19 13:23:05;;;;;;;3.45;1.58;;;8.50;99.90;;;;;;7577758;19;20041;-73
2022/11/19 13:25:43;;;;;;;8.73;1.77;;;8.50;99.90;;;;;;7558111;19;20010;-74
2022/11/19 13:28:25;;;;;;;3.00;1.70;;;8.40;99.90;;;;;;7599221;19;20026;-73
2022/11/19 13:31:04;;;;;;;6.35;2.60;;;8.40;99.90;;;;;;7604160;19;21128;-74
2022/11/19 13:33:48;;;;;;;6.85;2.97;;;8.30;99.90;;;;;;7598716;19;20022;-74
2022/11/19 13:36:53;;;;;;;6.40;2.80;;;8.20;99.90;;;;;;7580603;19;20021;-75
2022/11/19 13:39:29;;;;;;;;;;;8.20;99.90;;;;;;7598625;19;20787;-75
2022/11/19 13:44:55;;;;;;;11.32;3.67;;;8.40;99.90;;;;;;7570507;19;20018;-74
2022/11/19 13:47:34;;;;;;;5.50;2.53;;;8.50;99.90;;;;;;7567124;19;20013;-74
2022/11/19 13:50:18;;;;;;;4.68;2.17;;;8.50;99.90;;;;;;7585162;19;20513;-73
2022/11/19 13:53:34;;;;;;;6.30;2.22;;;8.50;99.90;;;;;;7589196;19;20021;-73
2022/11/19 13:56:12;;;;;;;3.53;2.10;;;8.50;99.90;;;;;;7583441;19;20080;-74
2022/11/19 13:58:48;;;;;;;7.05;1.98;;;8.60;99.90;;;;;;7575591;19;20027;-73
2022/11/19 14:02:03;;;;;;;3.95;2.13;;;8.70;99.90;;;;;;7582683;19;20014;-73
2022/11/19 14:04:48;;;;;;;3.78;2.67;;;8.90;99.90;;;;;;7585733;19;20007;-73
2022/11/19 14:07:27;;;;;;;4.63;2.25;;;10.60;99.90;;;;;;7559105;19;20010;-73
2022/11/19 14:10:08;;;;;;;5.75;1.98;;;11.30;97.10;;;;;;7557850;19;21040;-72
2022/11/19 14:13:01;;;;;;;5.40;2.63;;;11.70;96.40;;;;;;7579963;19;20022;-73
2022/11/19 14:27:35;;;;;;;8.02;2.70;;;17.50;67.10;;;;;;7573972;19;20106;-73
2022/11/19 14:30:14;;;;;;;2.30;1.90;;;18.40;63.90;;;;;;7587998;19;20025;-73